Terminal Aerodrome Forecast
Issued by NWS

Current Version | Previous Version | Graphics & Text | Print | Product List | Glossary On
Versions: 1 2 3 4 5 6 7 8 9 10 11 12 13 14
617
FTUS41 KPBZ 192000 AAA
TAFMGW
TAF AMD
KMGW 192000Z 1920/2018 20007KT P6SM BKN020
     FM192100 24007KT P6SM SKC
     FM201000 00000KT P6SM SCT020
     FM201500 30003KT P6SM SCT250=

USA.gov is the U.S. government's official web portal to all federal, state and local government web resources and services.